sensor_id;sensor_type;location;lat;lon;timestamp;P1;durP1;ratioP1;P2;durP2;ratioP2
35839;SDS011;35514;50.504;30.500;2022-12-07T00:01:03;14.68;;;6.35;;
35839;SDS011;35514;50.504;30.500;2022-12-07T00:03:31;14.38;;;5.85;;
35839;SDS011;35514;50.504;30.500;2022-12-07T00:05:58;21.55;;;5.43;;
35839;SDS011;35514;50.504;30.500;2022-12-07T00:08:26;14.55;;;6.40;;
35839;SDS011;35514;50.504;30.500;2022-12-07T00:10:54;12.40;;;5.50;;
35839;SDS011;35514;50.504;30.500;2022-12-07T00:13:21;14.52;;;5.45;;
35839;SDS011;35514;50.504;30.500;2022-12-07T00:15:50;19.20;;;7.35;;
35839;SDS011;35514;50.504;30.500;2022-12-07T00:18:18;17.50;;;5.80;;
35839;SDS011;35514;50.504;30.500;2022-12-07T00:20:45;27.33;;;6.63;;
35839;SDS011;35514;50.504;30.500;2022-12-07T00:23:13;12.77;;;5.20;;
35839;SDS011;35514;50.504;30.500;2022-12-07T00:25:40;17.67;;;5.55;;
35839;SDS011;35514;50.504;30.500;2022-12-07T00:28:08;21.52;;;6.80;;
35839;SDS011;35514;50.504;30.500;2022-12-07T00:30:37;16.70;;;5.78;;
35839;SDS011;35514;50.504;30.500;2022-12-07T00:33:06;14.85;;;6.05;;
35839;SDS011;35514;50.504;30.500;2022-12-07T00:35:33;16.83;;;6.28;;
35839;SDS011;35514;50.504;30.500;2022-12-07T00:38:01;15.00;;;6.30;;
35839;SDS011;35514;50.504;30.500;2022-12-07T00:40:28;11.88;;;5.90;;
35839;SDS011;35514;50.504;30.500;2022-12-07T00:42:56;16.42;;;5.70;;
35839;SDS011;35514;50.504;30.500;2022-12-07T00:45:23;17.05;;;7.93;;
35839;SDS011;35514;50.504;30.500;2022-12-07T00:47:51;15.05;;;6.50;;
35839;SDS011;35514;50.504;30.500;2022-12-07T00:50:20;15.75;;;6.13;;
35839;SDS011;35514;50.504;30.500;2022-12-07T00:52:47;20.75;;;6.32;;
35839;SDS011;35514;50.504;30.500;2022-12-07T00:55:15;20.63;;;6.38;;
35839;SDS011;35514;50.504;30.500;2022-12-07T00:57:43;16.15;;;6.35;;
35839;SDS011;35514;50.504;30.500;2022-12-07T01:00:10;14.85;;;6.53;;
35839;SDS011;35514;50.504;30.500;2022-12-07T01:02:38;19.38;;;6.90;;
35839;SDS011;35514;50.504;30.500;2022-12-07T01:05:06;17.63;;;7.50;;
35839;SDS011;35514;50.504;30.500;2022-12-07T01:07:37;16.75;;;6.10;;
35839;SDS011;35514;50.504;30.500;2022-12-07T01:10:05;15.85;;;6.55;;
35839;SDS011;35514;50.504;30.500;2022-12-07T01:12:33;16.40;;;6.03;;
35839;SDS011;35514;50.504;30.500;2022-12-07T01:15:01;30.85;;;7.05;;
35839;SDS011;35514;50.504;30.500;2022-12-07T01:17:28;13.35;;;5.97;;
35839;SDS011;35514;50.504;30.500;2022-12-07T01:19:56;23.05;;;7.32;;
35839;SDS011;35514;50.504;30.500;2022-12-07T01:22:24;20.13;;;7.68;;
35839;SDS011;35514;50.504;30.500;2022-12-07T01:24:53;23.48;;;6.03;;
35839;SDS011;35514;50.504;30.500;2022-12-07T01:27:21;18.95;;;6.93;;
35839;SDS011;35514;50.504;30.500;2022-12-07T01:29:48;21.45;;;7.70;;
35839;SDS011;35514;50.504;30.500;2022-12-07T01:32:18;18.95;;;6.28;;
35839;SDS011;35514;50.504;30.500;2022-12-07T01:34:47;21.75;;;6.38;;
35839;SDS011;35514;50.504;30.500;2022-12-07T01:37:14;21.00;;;6.60;;
35839;SDS011;35514;50.504;30.500;2022-12-07T01:39:42;13.55;;;6.00;;
35839;SDS011;35514;50.504;30.500;2022-12-07T01:42:11;14.77;;;5.55;;
35839;SDS011;35514;50.504;30.500;2022-12-07T01:47:21;21.50;;;6.78;;
35839;SDS011;35514;50.504;30.500;2022-12-07T01:49:49;18.77;;;6.78;;
35839;SDS011;35514;50.504;30.500;2022-12-07T01:52:18;23.25;;;7.05;;
35839;SDS011;35514;50.504;30.500;2022-12-07T01:54:47;14.15;;;5.47;;
35839;SDS011;35514;50.504;30.500;2022-12-07T01:57:17;21.08;;;5.68;;
35839;SDS011;35514;50.504;30.500;2022-12-07T01:59:45;18.38;;;6.47;;
35839;SDS011;35514;50.504;30.500;2022-12-07T02:02:20;15.45;;;5.47;;
35839;SDS011;35514;50.504;30.500;2022-12-07T02:04:50;14.38;;;5.65;;
35839;SDS011;35514;50.504;30.500;2022-12-07T02:07:18;18.65;;;5.88;;
35839;SDS011;35514;50.504;30.500;2022-12-07T02:09:46;16.90;;;6.22;;
35839;SDS011;35514;50.504;30.500;2022-12-07T02:12:13;11.02;;;5.53;;
35839;SDS011;35514;50.504;30.500;2022-12-07T02:14:42;13.90;;;5.55;;
35839;SDS011;35514;50.504;30.500;2022-12-07T02:17:11;14.45;;;6.15;;
35839;SDS011;35514;50.504;30.500;2022-12-07T02:22:53;18.38;;;4.55;;
35839;SDS011;35514;50.504;30.500;2022-12-07T02:25:23;14.90;;;5.63;;
35839;SDS011;35514;50.504;30.500;2022-12-07T02:27:56;16.88;;;5.72;;
35839;SDS011;35514;50.504;30.500;2022-12-07T02:30:31;15.52;;;5.25;;
35839;SDS011;35514;50.504;30.500;2022-12-07T02:33:00;18.17;;;6.63;;
35839;SDS011;35514;50.504;30.500;2022-12-07T02:35:31;18.70;;;7.35;;
35839;SDS011;35514;50.504;30.500;2022-12-07T02:38:02;22.42;;;7.68;;
35839;SDS011;35514;50.504;30.500;2022-12-07T02:40:32;23.58;;;9.20;;
35839;SDS011;35514;50.504;30.500;2022-12-07T02:43:03;19.92;;;7.65;;
35839;SDS011;35514;50.504;30.500;2022-12-07T02:45:34;17.60;;;6.88;;
35839;SDS011;35514;50.504;30.500;2022-12-07T02:48:03;17.85;;;6.60;;
35839;SDS011;35514;50.504;30.500;2022-12-07T02:50:31;19.48;;;7.03;;
35839;SDS011;35514;50.504;30.500;2022-12-07T02:52:58;19.45;;;7.50;;
35839;SDS011;35514;50.504;30.500;2022-12-07T02:55:27;20.15;;;7.75;;
35839;SDS011;35514;50.504;30.500;2022-12-07T02:58:01;19.08;;;7.22;;
35839;SDS011;35514;50.504;30.500;2022-12-07T03:00:33;20.77;;;7.18;;
35839;SDS011;35514;50.504;30.500;2022-12-07T03:03:06;15.73;;;6.78;;
35839;SDS011;35514;50.504;30.500;2022-12-07T03:05:52;22.83;;;7.63;;
35839;SDS011;35514;50.504;30.500;2022-12-07T03:08:23;15.65;;;5.03;;
35839;SDS011;35514;50.504;30.500;2022-12-07T03:10:56;22.92;;;7.95;;
35839;SDS011;35514;50.504;30.500;2022-12-07T03:13:25;22.65;;;7.53;;
35839;SDS011;35514;50.504;30.500;2022-12-07T03:15:56;32.00;;;9.50;;
35839;SDS011;35514;50.504;30.500;2022-12-07T03:18:28;35.63;;;8.55;;
35839;SDS011;35514;50.504;30.500;2022-12-07T03:21:02;25.50;;;7.70;;
35839;SDS011;35514;50.504;30.500;2022-12-07T03:23:32;27.77;;;7.28;;
35839;SDS011;35514;50.504;30.500;2022-12-07T03:26:00;22.30;;;7.20;;
35839;SDS011;35514;50.504;30.500;2022-12-07T03:28:29;20.67;;;6.78;;
35839;SDS011;35514;50.504;30.500;2022-12-07T03:30:59;24.15;;;6.68;;
35839;SDS011;35514;50.504;30.500;2022-12-07T03:33:30;21.55;;;7.03;;
35839;SDS011;35514;50.504;30.500;2022-12-07T03:36:00;15.07;;;6.10;;
35839;SDS011;35514;50.504;30.500;2022-12-07T03:38:30;20.27;;;7.32;;
35839;SDS011;35514;50.504;30.500;2022-12-07T03:40:59;30.75;;;7.80;;
35839;SDS011;35514;50.504;30.500;2022-12-07T03:43:28;22.83;;;7.43;;
35839;SDS011;35514;50.504;30.500;2022-12-07T03:45:58;25.95;;;6.35;;
35839;SDS011;35514;50.504;30.500;2022-12-07T03:48:31;20.33;;;6.82;;
35839;SDS011;35514;50.504;30.500;2022-12-07T03:51:01;30.92;;;7.07;;
35839;SDS011;35514;50.504;30.500;2022-12-07T03:53:34;15.95;;;6.97;;
35839;SDS011;35514;50.504;30.500;2022-12-07T03:56:02;21.90;;;5.50;;
35839;SDS011;35514;50.504;30.500;2022-12-07T03:58:30;19.33;;;6.78;;
35839;SDS011;35514;50.504;30.500;2022-12-07T04:00:59;21.92;;;8.52;;
35839;SDS011;35514;50.504;30.500;2022-12-07T04:03:26;18.63;;;7.03;;
35839;SDS011;35514;50.504;30.500;2022-12-07T04:05:55;22.27;;;6.97;;
35839;SDS011;35514;50.504;30.500;2022-12-07T04:08:24;25.77;;;7.78;;
35839;SDS011;35514;50.504;30.500;2022-12-07T04:10:51;14.43;;;6.70;;
35839;SDS011;35514;50.504;30.500;2022-12-07T04:13:19;19.58;;;7.07;;
35839;SDS011;35514;50.504;30.500;2022-12-07T04:15:46;28.63;;;7.70;;
35839;SDS011;35514;50.504;30.500;2022-12-07T04:18:14;24.30;;;7.07;;
35839;SDS011;35514;50.504;30.500;2022-12-07T04:20:41;24.38;;;8.55;;
35839;SDS011;35514;50.504;30.500;2022-12-07T04:23:10;17.02;;;6.57;;
35839;SDS011;35514;50.504;30.500;2022-12-07T04:25:38;14.98;;;5.80;;
35839;SDS011;35514;50.504;30.500;2022-12-07T04:28:06;21.13;;;6.05;;
35839;SDS011;35514;50.504;30.500;2022-12-07T04:30:33;20.45;;;7.43;;
35839;SDS011;35514;50.504;30.500;2022-12-07T04:33:01;13.90;;;5.95;;
35839;SDS011;35514;50.504;30.500;2022-12-07T04:35:28;19.88;;;5.65;;
35839;SDS011;35514;50.504;30.500;2022-12-07T04:37:56;12.40;;;6.40;;
35839;SDS011;35514;50.504;30.500;2022-12-07T04:40:25;12.23;;;5.53;;
35839;SDS011;35514;50.504;30.500;2022-12-07T04:42:52;11.15;;;5.65;;
35839;SDS011;35514;50.504;30.500;2022-12-07T04:45:21;18.63;;;6.15;;
35839;SDS011;35514;50.504;30.500;2022-12-07T04:47:48;22.25;;;7.15;;
35839;SDS011;35514;50.504;30.500;2022-12-07T04:50:16;16.20;;;6.55;;
35839;SDS011;35514;50.504;30.500;2022-12-07T04:52:43;20.58;;;6.60;;
35839;SDS011;35514;50.504;30.500;2022-12-07T04:55:11;13.50;;;6.28;;
35839;SDS011;35514;50.504;30.500;2022-12-07T04:57:40;23.52;;;7.03;;
35839;SDS011;35514;50.504;30.500;2022-12-07T05:00:08;20.92;;;6.30;;
35839;SDS011;35514;50.504;30.500;2022-12-07T05:02:36;14.75;;;6.68;;
35839;SDS011;35514;50.504;30.500;2022-12-07T05:05:03;21.48;;;8.00;;
35839;SDS011;35514;50.504;30.500;2022-12-07T05:07:31;16.40;;;6.78;;
35839;SDS011;35514;50.504;30.500;2022-12-07T05:09:58;12.43;;;5.88;;
35839;SDS011;35514;50.504;30.500;2022-12-07T05:12:27;13.02;;;6.47;;
35839;SDS011;35514;50.504;30.500;2022-12-07T05:14:55;14.90;;;6.82;;
35839;SDS011;35514;50.504;30.500;2022-12-07T05:17:23;15.98;;;6.78;;
35839;SDS011;35514;50.504;30.500;2022-12-07T05:19:50;20.50;;;6.90;;
35839;SDS011;35514;50.504;30.500;2022-12-07T05:22:18;12.55;;;7.28;;
35839;SDS011;35514;50.504;30.500;2022-12-07T05:24:46;20.40;;;6.93;;
35839;SDS011;35514;50.504;30.500;2022-12-07T05:27:13;16.52;;;7.72;;
35839;SDS011;35514;50.504;30.500;2022-12-07T05:29:41;14.57;;;7.03;;
35839;SDS011;35514;50.504;30.500;2022-12-07T05:32:09;19.15;;;8.68;;
35839;SDS011;35514;50.504;30.500;2022-12-07T05:34:37;29.35;;;9.18;;
35839;SDS011;35514;50.504;30.500;2022-12-07T05:37:04;16.95;;;7.70;;
35839;SDS011;35514;50.504;30.500;2022-12-07T05:39:33;21.88;;;8.82;;
35839;SDS011;35514;50.504;30.500;2022-12-07T05:42:00;25.92;;;9.68;;
35839;SDS011;35514;50.504;30.500;2022-12-07T05:44:44;33.53;;;8.82;;
35839;SDS011;35514;50.504;30.500;2022-12-07T05:47:14;23.70;;;9.43;;
35839;SDS011;35514;50.504;30.500;2022-12-07T05:49:42;22.60;;;8.95;;
35839;SDS011;35514;50.504;30.500;2022-12-07T05:52:09;31.70;;;9.77;;
35839;SDS011;35514;50.504;30.500;2022-12-07T05:54:37;21.23;;;9.07;;
35839;SDS011;35514;50.504;30.500;2022-12-07T05:57:04;25.02;;;8.35;;
35839;SDS011;35514;50.504;30.500;2022-12-07T05:59:32;28.33;;;9.32;;
35839;SDS011;35514;50.504;30.500;2022-12-07T06:02:00;23.13;;;9.35;;
35839;SDS011;35514;50.504;30.500;2022-12-07T06:04:45;22.20;;;9.07;;
35839;SDS011;35514;50.504;30.500;2022-12-07T06:07:14;27.40;;;9.65;;
35839;SDS011;35514;50.504;30.500;2022-12-07T06:09:42;22.02;;;9.35;;
35839;SDS011;35514;50.504;30.500;2022-12-07T06:12:10;29.50;;;10.00;;
35839;SDS011;35514;50.504;30.500;2022-12-07T06:14:56;22.65;;;10.38;;
35839;SDS011;35514;50.504;30.500;2022-12-07T06:17:23;26.13;;;9.57;;
35839;SDS011;35514;50.504;30.500;2022-12-07T06:19:52;26.60;;;10.60;;
35839;SDS011;35514;50.504;30.500;2022-12-07T06:22:20;29.10;;;11.52;;
35839;SDS011;35514;50.504;30.500;2022-12-07T06:24:48;23.17;;;10.63;;
35839;SDS011;35514;50.504;30.500;2022-12-07T06:27:15;38.60;;;12.30;;
35839;SDS011;35514;50.504;30.500;2022-12-07T06:29:44;35.08;;;12.73;;
35839;SDS011;35514;50.504;30.500;2022-12-07T06:32:11;35.55;;;11.35;;
35839;SDS011;35514;50.504;30.500;2022-12-07T06:34:39;27.45;;;12.68;;
35839;SDS011;35514;50.504;30.500;2022-12-07T06:37:08;36.65;;;11.50;;
35839;SDS011;35514;50.504;30.500;2022-12-07T06:39:36;44.60;;;13.02;;
35839;SDS011;35514;50.504;30.500;2022-12-07T06:42:03;37.00;;;13.02;;
35839;SDS011;35514;50.504;30.500;2022-12-07T06:44:31;33.42;;;13.55;;
35839;SDS011;35514;50.504;30.500;2022-12-07T06:46:59;34.58;;;11.80;;
35839;SDS011;35514;50.504;30.500;2022-12-07T06:49:46;31.63;;;12.43;;
35839;SDS011;35514;50.504;30.500;2022-12-07T06:52:15;27.13;;;11.70;;
35839;SDS011;35514;50.504;30.500;2022-12-07T06:54:43;39.60;;;11.32;;
35839;SDS011;35514;50.504;30.500;2022-12-07T06:57:11;34.13;;;10.98;;
35839;SDS011;35514;50.504;30.500;2022-12-07T06:59:38;25.42;;;10.13;;
35839;SDS011;35514;50.504;30.500;2022-12-07T07:02:07;32.20;;;11.60;;
35839;SDS011;35514;50.504;30.500;2022-12-07T07:04:35;30.75;;;10.75;;
35839;SDS011;35514;50.504;30.500;2022-12-07T07:07:02;24.05;;;10.20;;
35839;SDS011;35514;50.504;30.500;2022-12-07T07:09:31;28.67;;;11.45;;
35839;SDS011;35514;50.504;30.500;2022-12-07T07:11:59;26.48;;;11.15;;
35839;SDS011;35514;50.504;30.500;2022-12-07T07:14:27;15.93;;;7.78;;
35839;SDS011;35514;50.504;30.500;2022-12-07T07:16:54;20.27;;;8.23;;
35839;SDS011;35514;50.504;30.500;2022-12-07T07:19:22;19.40;;;8.55;;
35839;SDS011;35514;50.504;30.500;2022-12-07T07:21:49;27.58;;;9.38;;
35839;SDS011;35514;50.504;30.500;2022-12-07T07:24:17;30.17;;;10.43;;
35839;SDS011;35514;50.504;30.500;2022-12-07T07:26:46;24.92;;;9.77;;
35839;SDS011;35514;50.504;30.500;2022-12-07T07:29:13;31.85;;;10.52;;
35839;SDS011;35514;50.504;30.500;2022-12-07T07:31:41;21.83;;;8.15;;
35839;SDS011;35514;50.504;30.500;2022-12-07T07:34:09;27.02;;;8.15;;
35839;SDS011;35514;50.504;30.500;2022-12-07T07:36:37;14.95;;;7.32;;
35839;SDS011;35514;50.504;30.500;2022-12-07T07:39:05;20.27;;;7.43;;
35839;SDS011;35514;50.504;30.500;2022-12-07T07:41:33;22.17;;;7.25;;
35839;SDS011;35514;50.504;30.500;2022-12-07T07:44:02;14.63;;;7.38;;
35839;SDS011;35514;50.504;30.500;2022-12-07T07:46:30;18.55;;;7.90;;
35839;SDS011;35514;50.504;30.500;2022-12-07T07:48:59;20.35;;;7.35;;
35839;SDS011;35514;50.504;30.500;2022-12-07T07:51:27;24.02;;;7.68;;
35839;SDS011;35514;50.504;30.500;2022-12-07T07:53:55;20.70;;;8.23;;
35839;SDS011;35514;50.504;30.500;2022-12-07T07:56:22;24.00;;;8.57;;
35839;SDS011;35514;50.504;30.500;2022-12-07T07:58:51;21.42;;;7.53;;
35839;SDS011;35514;50.504;30.500;2022-12-07T08:01:20;25.42;;;9.13;;
35839;SDS011;35514;50.504;30.500;2022-12-07T08:03:48;23.13;;;8.32;;
35839;SDS011;35514;50.504;30.500;2022-12-07T08:06:16;18.83;;;7.85;;
35839;SDS011;35514;50.504;30.500;2022-12-07T08:08:44;19.50;;;7.57;;
35839;SDS011;35514;50.504;30.500;2022-12-07T08:11:11;22.48;;;7.70;;
35839;SDS011;35514;50.504;30.500;2022-12-07T08:13:39;19.00;;;7.93;;
35839;SDS011;35514;50.504;30.500;2022-12-07T08:16:07;27.00;;;8.00;;
35839;SDS011;35514;50.504;30.500;2022-12-07T08:18:37;21.85;;;7.10;;
35839;SDS011;35514;50.504;30.500;2022-12-07T08:21:05;14.88;;;6.53;;
35839;SDS011;35514;50.504;30.500;2022-12-07T08:23:33;16.92;;;7.32;;
35839;SDS011;35514;50.504;30.500;2022-12-07T08:26:06;17.60;;;7.32;;
35839;SDS011;35514;50.504;30.500;2022-12-07T08:28:33;24.60;;;7.90;;
35839;SDS011;35514;50.504;30.500;2022-12-07T08:31:01;20.52;;;6.90;;
35839;SDS011;35514;50.504;30.500;2022-12-07T08:33:29;18.35;;;8.15;;
35839;SDS011;35514;50.504;30.500;2022-12-07T08:36:01;20.52;;;8.18;;
35839;SDS011;35514;50.504;30.500;2022-12-07T08:38:28;17.67;;;8.10;;
35839;SDS011;35514;50.504;30.500;2022-12-07T08:40:57;19.73;;;7.82;;
35839;SDS011;35514;50.504;30.500;2022-12-07T08:43:30;22.98;;;7.47;;
35839;SDS011;35514;50.504;30.500;2022-12-07T08:46:00;20.05;;;7.45;;
35839;SDS011;35514;50.504;30.500;2022-12-07T08:48:31;16.75;;;7.65;;
35839;SDS011;35514;50.504;30.500;2022-12-07T08:51:01;19.42;;;8.93;;
35839;SDS011;35514;50.504;30.500;2022-12-07T08:53:28;16.15;;;7.28;;
35839;SDS011;35514;50.504;30.500;2022-12-07T08:55:57;16.45;;;7.82;;
35839;SDS011;35514;50.504;30.500;2022-12-07T08:58:25;17.80;;;8.27;;
35839;SDS011;35514;50.504;30.500;2022-12-07T09:00:52;17.40;;;8.52;;
35839;SDS011;35514;50.504;30.500;2022-12-07T09:03:20;20.35;;;8.57;;
35839;SDS011;35514;50.504;30.500;2022-12-07T09:05:48;28.10;;;8.00;;
35839;SDS011;35514;50.504;30.500;2022-12-07T09:08:17;19.85;;;8.23;;
35839;SDS011;35514;50.504;30.500;2022-12-07T09:10:45;21.75;;;8.68;;
35839;SDS011;35514;50.504;30.500;2022-12-07T09:13:12;20.88;;;8.15;;
35839;SDS011;35514;50.504;30.500;2022-12-07T09:15:40;18.70;;;8.23;;
35839;SDS011;35514;50.504;30.500;2022-12-07T09:18:07;26.90;;;8.30;;
35839;SDS011;35514;50.504;30.500;2022-12-07T09:20:35;21.92;;;7.43;;
35839;SDS011;35514;50.504;30.500;2022-12-07T09:23:04;17.85;;;7.18;;
35839;SDS011;35514;50.504;30.500;2022-12-07T09:25:35;14.30;;;7.57;;
35839;SDS011;35514;50.504;30.500;2022-12-07T09:28:02;14.35;;;6.95;;
35839;SDS011;35514;50.504;30.500;2022-12-07T09:30:30;20.17;;;8.43;;
35839;SDS011;35514;50.504;30.500;2022-12-07T09:33:20;19.38;;;8.85;;
35839;SDS011;35514;50.504;30.500;2022-12-07T09:35:49;23.17;;;8.55;;
35839;SDS011;35514;50.504;30.500;2022-12-07T09:38:16;20.08;;;8.90;;
35839;SDS011;35514;50.504;30.500;2022-12-07T09:40:46;19.23;;;7.93;;
35839;SDS011;35514;50.504;30.500;2022-12-07T09:43:13;19.63;;;6.97;;
35839;SDS011;35514;50.504;30.500;2022-12-07T09:45:42;17.50;;;7.65;;
35839;SDS011;35514;50.504;30.500;2022-12-07T09:48:15;18.23;;;8.55;;
35839;SDS011;35514;50.504;30.500;2022-12-07T09:50:44;17.92;;;8.40;;
35839;SDS011;35514;50.504;30.500;2022-12-07T09:53:13;20.23;;;9.18;;
35839;SDS011;35514;50.504;30.500;2022-12-07T09:55:42;23.10;;;8.20;;
35839;SDS011;35514;50.504;30.500;2022-12-07T09:58:13;22.55;;;8.43;;
35839;SDS011;35514;50.504;30.500;2022-12-07T10:00:45;24.08;;;7.95;;
35839;SDS011;35514;50.504;30.500;2022-12-07T10:03:12;24.42;;;9.65;;
35839;SDS011;35514;50.504;30.500;2022-12-07T10:05:42;18.30;;;8.32;;
35839;SDS011;35514;50.504;30.500;2022-12-07T10:08:11;23.90;;;9.40;;
35839;SDS011;35514;50.504;30.500;2022-12-07T10:10:39;23.38;;;9.68;;
35839;SDS011;35514;50.504;30.500;2022-12-07T10:13:08;21.58;;;8.25;;
35839;SDS011;35514;50.504;30.500;2022-12-07T10:15:45;22.27;;;9.60;;
35839;SDS011;35514;50.504;30.500;2022-12-07T10:18:18;18.20;;;8.65;;
35839;SDS011;35514;50.504;30.500;2022-12-07T10:20:47;20.17;;;9.27;;
35839;SDS011;35514;50.504;30.500;2022-12-07T10:23:17;25.25;;;10.52;;
35839;SDS011;35514;50.504;30.500;2022-12-07T10:25:45;24.50;;;9.95;;
35839;SDS011;35514;50.504;30.500;2022-12-07T10:28:15;24.50;;;9.55;;
35839;SDS011;35514;50.504;30.500;2022-12-07T10:30:52;29.75;;;11.02;;
35839;SDS011;35514;50.504;30.500;2022-12-07T10:33:31;23.25;;;10.20;;
35839;SDS011;35514;50.504;30.500;2022-12-07T10:35:59;31.98;;;10.70;;
35839;SDS011;35514;50.504;30.500;2022-12-07T10:38:27;22.10;;;9.65;;
35839;SDS011;35514;50.504;30.500;2022-12-07T10:41:03;24.60;;;10.40;;
35839;SDS011;35514;50.504;30.500;2022-12-07T10:43:31;30.40;;;10.90;;
35839;SDS011;35514;50.504;30.500;2022-12-07T10:46:07;26.20;;;10.05;;
35839;SDS011;35514;50.504;30.500;2022-12-07T10:48:41;23.27;;;10.15;;
35839;SDS011;35514;50.504;30.500;2022-12-07T10:51:13;26.98;;;11.35;;
35839;SDS011;35514;50.504;30.500;2022-12-07T10:53:52;30.38;;;10.68;;
35839;SDS011;35514;50.504;30.500;2022-12-07T10:56:36;26.58;;;10.48;;
35839;SDS011;35514;50.504;30.500;2022-12-07T10:59:21;24.27;;;9.77;;
35839;SDS011;35514;50.504;30.500;2022-12-07T11:01:54;26.92;;;11.43;;
35839;SDS011;35514;50.504;30.500;2022-12-07T11:04:26;25.55;;;11.25;;
35839;SDS011;35514;50.504;30.500;2022-12-07T11:06:57;24.90;;;10.18;;
35839;SDS011;35514;50.504;30.500;2022-12-07T11:09:41;27.75;;;11.13;;
35839;SDS011;35514;50.504;30.500;2022-12-07T11:12:33;45.03;;;11.13;;
35839;SDS011;35514;50.504;30.500;2022-12-07T11:15:08;26.73;;;10.65;;
35839;SDS011;35514;50.504;30.500;2022-12-07T11:17:42;28.98;;;10.73;;
35839;SDS011;35514;50.504;30.500;2022-12-07T11:20:28;25.98;;;10.82;;
35839;SDS011;35514;50.504;30.500;2022-12-07T11:24:23;22.60;;;9.07;;
35839;SDS011;35514;50.504;30.500;2022-12-07T11:26:34;25.27;;;10.27;;
35839;SDS011;35514;50.504;30.500;2022-12-07T11:29:11;32.55;;;11.65;;
35839;SDS011;35514;50.504;30.500;2022-12-07T11:31:56;28.90;;;13.10;;
35839;SDS011;35514;50.504;30.500;2022-12-07T11:34:34;21.15;;;10.25;;
35839;SDS011;35514;50.504;30.500;2022-12-07T11:37:06;29.58;;;11.65;;
35839;SDS011;35514;50.504;30.500;2022-12-07T11:45:18;21.38;;;9.85;;
35839;SDS011;35514;50.504;30.500;2022-12-07T11:47:53;27.75;;;10.63;;
35839;SDS011;35514;50.504;30.500;2022-12-07T11:50:42;19.73;;;8.45;;
35839;SDS011;35514;50.504;30.500;2022-12-07T11:53:44;30.17;;;11.30;;
35839;SDS011;35514;50.504;30.500;2022-12-07T11:56:14;26.95;;;11.35;;
35839;SDS011;35514;50.504;30.500;2022-12-07T11:58:45;30.75;;;10.52;;
35839;SDS011;35514;50.504;30.500;2022-12-07T12:01:18;27.38;;;11.30;;
35839;SDS011;35514;50.504;30.500;2022-12-07T12:03:50;28.35;;;12.15;;
35839;SDS011;35514;50.504;30.500;2022-12-07T12:06:20;25.67;;;11.65;;
35839;SDS011;35514;50.504;30.500;2022-12-07T12:08:50;28.90;;;11.43;;
35839;SDS011;35514;50.504;30.500;2022-12-07T12:12:00;33.83;;;12.02;;
35839;SDS011;35514;50.504;30.500;2022-12-07T12:14:54;28.15;;;11.82;;
35839;SDS011;35514;50.504;30.500;2022-12-07T12:17:29;39.78;;;14.18;;
35839;SDS011;35514;50.504;30.500;2022-12-07T12:20:03;30.73;;;10.82;;
35839;SDS011;35514;50.504;30.500;2022-12-07T12:22:36;27.50;;;11.20;;
35839;SDS011;35514;50.504;30.500;2022-12-07T12:25:05;30.73;;;11.07;;
35839;SDS011;35514;50.504;30.500;2022-12-07T12:27:38;29.17;;;12.73;;
35839;SDS011;35514;50.504;30.500;2022-12-07T12:30:07;25.25;;;10.75;;
35839;SDS011;35514;50.504;30.500;2022-12-07T12:35:22;25.73;;;10.27;;
35839;SDS011;35514;50.504;30.500;2022-12-07T12:37:55;24.20;;;10.35;;
35839;SDS011;35514;50.504;30.500;2022-12-07T12:40:46;35.38;;;11.93;;
35839;SDS011;35514;50.504;30.500;2022-12-07T12:48:52;32.40;;;11.38;;
35839;SDS011;35514;50.504;30.500;2022-12-07T12:54:10;32.58;;;11.20;;
35839;SDS011;35514;50.504;30.500;2022-12-07T12:56:55;30.75;;;12.15;;
35839;SDS011;35514;50.504;30.500;2022-12-07T12:59:28;28.63;;;11.15;;
35839;SDS011;35514;50.504;30.500;2022-12-07T13:02:08;39.13;;;12.20;;
35839;SDS011;35514;50.504;30.500;2022-12-07T13:10:08;33.45;;;12.82;;
35839;SDS011;35514;50.504;30.500;2022-12-07T13:12:56;32.35;;;11.82;;
35839;SDS011;35514;50.504;30.500;2022-12-07T13:15:31;34.20;;;12.18;;
35839;SDS011;35514;50.504;30.500;2022-12-07T13:20:47;31.95;;;13.45;;
35839;SDS011;35514;50.504;30.500;2022-12-07T13:23:16;32.65;;;12.82;;
35839;SDS011;35514;50.504;30.500;2022-12-07T13:25:48;29.02;;;11.80;;
35839;SDS011;35514;50.504;30.500;2022-12-07T13:28:20;37.70;;;12.70;;
35839;SDS011;35514;50.504;30.500;2022-12-07T13:33:34;33.90;;;12.68;;
35839;SDS011;35514;50.504;30.500;2022-12-07T13:36:02;24.95;;;10.98;;
35839;SDS011;35514;50.504;30.500;2022-12-07T13:38:32;39.53;;;14.00;;
35839;SDS011;35514;50.504;30.500;2022-12-07T13:41:02;36.25;;;12.50;;
35839;SDS011;35514;50.504;30.500;2022-12-07T13:43:31;25.42;;;11.57;;
35839;SDS011;35514;50.504;30.500;2022-12-07T13:45:59;34.83;;;13.63;;
35839;SDS011;35514;50.504;30.500;2022-12-07T13:48:29;32.25;;;13.68;;
35839;SDS011;35514;50.504;30.500;2022-12-07T13:51:14;29.73;;;12.80;;
35839;SDS011;35514;50.504;30.500;2022-12-07T13:53:46;32.60;;;13.65;;
35839;SDS011;35514;50.504;30.500;2022-12-07T13:56:14;28.55;;;12.90;;
35839;SDS011;35514;50.504;30.500;2022-12-07T13:58:43;34.80;;;12.13;;
35839;SDS011;35514;50.504;30.500;2022-12-07T14:01:12;32.95;;;14.60;;
35839;SDS011;35514;50.504;30.500;2022-12-07T14:03:42;27.05;;;12.40;;
35839;SDS011;35514;50.504;30.500;2022-12-07T14:06:18;28.77;;;12.40;;
35839;SDS011;35514;50.504;30.500;2022-12-07T14:08:47;30.65;;;12.43;;
35839;SDS011;35514;50.504;30.500;2022-12-07T14:13:56;29.42;;;12.20;;
35839;SDS011;35514;50.504;30.500;2022-12-07T14:16:27;31.38;;;11.30;;
35839;SDS011;35514;50.504;30.500;2022-12-07T14:18:56;34.30;;;12.90;;
35839;SDS011;35514;50.504;30.500;2022-12-07T14:21:25;33.03;;;12.70;;
35839;SDS011;35514;50.504;30.500;2022-12-07T14:26:45;37.35;;;13.38;;
35839;SDS011;35514;50.504;30.500;2022-12-07T14:29:21;36.00;;;13.50;;
35839;SDS011;35514;50.504;30.500;2022-12-07T14:31:52;33.90;;;12.75;;
35839;SDS011;35514;50.504;30.500;2022-12-07T14:34:19;34.78;;;13.00;;
35839;SDS011;35514;50.504;30.500;2022-12-07T14:36:47;36.05;;;12.68;;
35839;SDS011;35514;50.504;30.500;2022-12-07T14:39:15;37.38;;;12.40;;
35839;SDS011;35514;50.504;30.500;2022-12-07T14:41:43;35.35;;;13.73;;
35839;SDS011;35514;50.504;30.500;2022-12-07T14:44:22;34.83;;;12.48;;
35839;SDS011;35514;50.504;30.500;2022-12-07T14:46:54;37.85;;;14.80;;
35839;SDS011;35514;50.504;30.500;2022-12-07T14:49:43;44.40;;;14.45;;
35839;SDS011;35514;50.504;30.500;2022-12-07T14:52:12;44.58;;;15.00;;
35839;SDS011;35514;50.504;30.500;2022-12-07T14:55:00;30.65;;;12.07;;
35839;SDS011;35514;50.504;30.500;2022-12-07T14:57:29;31.77;;;13.98;;
35839;SDS011;35514;50.504;30.500;2022-12-07T14:59:58;36.00;;;13.02;;
35839;SDS011;35514;50.504;30.500;2022-12-07T15:02:26;37.63;;;13.18;;
35839;SDS011;35514;50.504;30.500;2022-12-07T15:04:54;28.10;;;13.40;;
35839;SDS011;35514;50.504;30.500;2022-12-07T15:07:22;31.98;;;12.48;;
35839;SDS011;35514;50.504;30.500;2022-12-07T15:09:50;31.10;;;13.38;;
35839;SDS011;35514;50.504;30.500;2022-12-07T15:12:18;33.92;;;12.43;;
35839;SDS011;35514;50.504;30.500;2022-12-07T15:14:45;33.38;;;13.20;;